sensor_id;sensor_type;location;lat;lon;timestamp;P1;durP1;ratioP1;P2;durP2;ratioP2
48403;SDS011;34202;52.536;6.042;2022-12-05T00:03:25;36.90;;;18.40;;
48403;SDS011;34202;52.536;6.042;2022-12-05T00:08:25;33.00;;;17.20;;
48403;SDS011;34202;52.536;6.042;2022-12-05T00:13:26;37.60;;;18.70;;
48403;SDS011;34202;52.536;6.042;2022-12-05T00:18:26;29.70;;;17.00;;
48403;SDS011;34202;52.536;6.042;2022-12-05T00:23:26;35.90;;;19.60;;
48403;SDS011;34202;52.536;6.042;2022-12-05T00:28:27;31.80;;;17.90;;
48403;SDS011;34202;52.536;6.042;2022-12-05T00:33:27;35.60;;;19.20;;
48403;SDS011;34202;52.536;6.042;2022-12-05T00:38:27;33.80;;;19.40;;
48403;SDS011;34202;52.536;6.042;2022-12-05T00:43:28;31.40;;;18.90;;
48403;SDS011;34202;52.536;6.042;2022-12-05T00:48:28;38.30;;;21.20;;
48403;SDS011;34202;52.536;6.042;2022-12-05T00:53:29;34.30;;;18.40;;
48403;SDS011;34202;52.536;6.042;2022-12-05T00:58:31;34.50;;;20.60;;
48403;SDS011;34202;52.536;6.042;2022-12-05T01:03:31;31.50;;;18.30;;
48403;SDS011;34202;52.536;6.042;2022-12-05T01:08:33;32.70;;;18.00;;
48403;SDS011;34202;52.536;6.042;2022-12-05T01:13:34;36.20;;;19.50;;
48403;SDS011;34202;52.536;6.042;2022-12-05T01:18:35;31.60;;;18.80;;
48403;SDS011;34202;52.536;6.042;2022-12-05T01:23:35;35.00;;;20.90;;
48403;SDS011;34202;52.536;6.042;2022-12-05T01:28:35;32.10;;;18.80;;
48403;SDS011;34202;52.536;6.042;2022-12-05T01:33:36;28.30;;;14.80;;
48403;SDS011;34202;52.536;6.042;2022-12-05T01:38:40;29.50;;;18.10;;
48403;SDS011;34202;52.536;6.042;2022-12-05T01:43:55;32.60;;;17.70;;
48403;SDS011;34202;52.536;6.042;2022-12-05T01:49:03;26.00;;;16.60;;
48403;SDS011;34202;52.536;6.042;2022-12-05T01:54:08;28.20;;;17.10;;
48403;SDS011;34202;52.536;6.042;2022-12-05T01:59:10;29.50;;;18.30;;
48403;SDS011;34202;52.536;6.042;2022-12-05T02:04:12;31.00;;;16.90;;
48403;SDS011;34202;52.536;6.042;2022-12-05T02:09:13;22.90;;;13.80;;
48403;SDS011;34202;52.536;6.042;2022-12-05T02:14:19;30.10;;;17.40;;
48403;SDS011;34202;52.536;6.042;2022-12-05T02:25:12;28.20;;;14.40;;
48403;SDS011;34202;52.536;6.042;2022-12-05T02:30:22;24.20;;;14.30;;
48403;SDS011;34202;52.536;6.042;2022-12-05T02:35:29;28.20;;;16.10;;
48403;SDS011;34202;52.536;6.042;2022-12-05T02:40:42;29.90;;;17.10;;
48403;SDS011;34202;52.536;6.042;2022-12-05T02:45:56;29.30;;;16.30;;
48403;SDS011;34202;52.536;6.042;2022-12-05T02:50:59;28.40;;;16.60;;
48403;SDS011;34202;52.536;6.042;2022-12-05T02:56:03;28.60;;;15.50;;
48403;SDS011;34202;52.536;6.042;2022-12-05T03:01:04;28.50;;;18.60;;
48403;SDS011;34202;52.536;6.042;2022-12-05T03:06:11;29.70;;;18.30;;
48403;SDS011;34202;52.536;6.042;2022-12-05T03:11:14;30.30;;;17.60;;
48403;SDS011;34202;52.536;6.042;2022-12-05T03:16:19;35.90;;;20.40;;
48403;SDS011;34202;52.536;6.042;2022-12-05T03:32:25;28.70;;;17.40;;
48403;SDS011;34202;52.536;6.042;2022-12-05T03:37:51;38.50;;;21.70;;
48403;SDS011;34202;52.536;6.042;2022-12-05T03:43:00;31.90;;;19.30;;
48403;SDS011;34202;52.536;6.042;2022-12-05T03:53:20;38.40;;;22.00;;
48403;SDS011;34202;52.536;6.042;2022-12-05T03:58:26;27.50;;;16.00;;
48403;SDS011;34202;52.536;6.042;2022-12-05T04:08:44;38.20;;;19.00;;
48403;SDS011;34202;52.536;6.042;2022-12-05T04:13:59;35.40;;;17.70;;
48403;SDS011;34202;52.536;6.042;2022-12-05T04:24:28;40.70;;;21.60;;
48403;SDS011;34202;52.536;6.042;2022-12-05T04:29:53;40.50;;;22.50;;
48403;SDS011;34202;52.536;6.042;2022-12-05T04:35:02;35.80;;;21.30;;
48403;SDS011;34202;52.536;6.042;2022-12-05T04:40:13;35.10;;;17.90;;
48403;SDS011;34202;52.536;6.042;2022-12-05T04:45:20;38.00;;;21.00;;
48403;SDS011;34202;52.536;6.042;2022-12-05T04:50:23;38.30;;;21.60;;
48403;SDS011;34202;52.536;6.042;2022-12-05T05:00:30;39.80;;;20.20;;
48403;SDS011;34202;52.536;6.042;2022-12-05T05:05:38;36.10;;;20.60;;
48403;SDS011;34202;52.536;6.042;2022-12-05T05:10:47;37.00;;;21.30;;
48403;SDS011;34202;52.536;6.042;2022-12-05T05:15:51;33.80;;;19.70;;
48403;SDS011;34202;52.536;6.042;2022-12-05T05:20:51;37.00;;;21.30;;
48403;SDS011;34202;52.536;6.042;2022-12-05T05:25:52;38.00;;;19.80;;
48403;SDS011;34202;52.536;6.042;2022-12-05T05:30:54;38.00;;;18.00;;
48403;SDS011;34202;52.536;6.042;2022-12-05T05:35:54;34.40;;;18.80;;
48403;SDS011;34202;52.536;6.042;2022-12-05T05:40:55;26.60;;;17.20;;
48403;SDS011;34202;52.536;6.042;2022-12-05T05:45:55;30.00;;;18.40;;
48403;SDS011;34202;52.536;6.042;2022-12-05T05:50:59;28.60;;;17.70;;
48403;SDS011;34202;52.536;6.042;2022-12-05T05:56:04;20.90;;;14.90;;
48403;SDS011;34202;52.536;6.042;2022-12-05T06:01:08;21.60;;;13.50;;
48403;SDS011;34202;52.536;6.042;2022-12-05T06:06:12;21.90;;;12.30;;
48403;SDS011;34202;52.536;6.042;2022-12-05T06:11:15;21.60;;;13.30;;
48403;SDS011;34202;52.536;6.042;2022-12-05T06:16:17;17.30;;;10.80;;
48403;SDS011;34202;52.536;6.042;2022-12-05T06:21:18;18.90;;;13.20;;
48403;SDS011;34202;52.536;6.042;2022-12-05T06:26:20;20.80;;;13.80;;
48403;SDS011;34202;52.536;6.042;2022-12-05T06:31:22;18.90;;;13.50;;
48403;SDS011;34202;52.536;6.042;2022-12-05T06:36:25;19.30;;;12.70;;
48403;SDS011;34202;52.536;6.042;2022-12-05T06:41:27;23.70;;;14.40;;
48403;SDS011;34202;52.536;6.042;2022-12-05T06:46:27;15.80;;;10.10;;
48403;SDS011;34202;52.536;6.042;2022-12-05T06:51:28;14.30;;;11.40;;
48403;SDS011;34202;52.536;6.042;2022-12-05T06:56:28;13.20;;;10.00;;
48403;SDS011;34202;52.536;6.042;2022-12-05T07:01:28;12.90;;;10.10;;
48403;SDS011;34202;52.536;6.042;2022-12-05T07:06:38;12.10;;;8.80;;
48403;SDS011;34202;52.536;6.042;2022-12-05T07:11:40;6.60;;;5.60;;
48403;SDS011;34202;52.536;6.042;2022-12-05T07:16:40;9.10;;;6.50;;
48403;SDS011;34202;52.536;6.042;2022-12-05T07:21:41;11.20;;;6.30;;
48403;SDS011;34202;52.536;6.042;2022-12-05T07:26:41;10.70;;;6.70;;
48403;SDS011;34202;52.536;6.042;2022-12-05T07:31:41;7.80;;;6.90;;
48403;SDS011;34202;52.536;6.042;2022-12-05T07:36:42;9.50;;;7.40;;
48403;SDS011;34202;52.536;6.042;2022-12-05T07:41:42;9.80;;;7.70;;
48403;SDS011;34202;52.536;6.042;2022-12-05T07:46:42;9.30;;;6.70;;
48403;SDS011;34202;52.536;6.042;2022-12-05T07:51:42;7.80;;;6.60;;
48403;SDS011;34202;52.536;6.042;2022-12-05T07:56:43;7.40;;;6.00;;
48403;SDS011;34202;52.536;6.042;2022-12-05T08:01:43;6.40;;;5.20;;
48403;SDS011;34202;52.536;6.042;2022-12-05T08:06:43;5.70;;;5.10;;
48403;SDS011;34202;52.536;6.042;2022-12-05T08:11:44;5.90;;;4.30;;
48403;SDS011;34202;52.536;6.042;2022-12-05T08:16:44;4.60;;;4.20;;
48403;SDS011;34202;52.536;6.042;2022-12-05T08:21:44;2.90;;;2.60;;
48403;SDS011;34202;52.536;6.042;2022-12-05T08:26:45;4.10;;;3.60;;
48403;SDS011;34202;52.536;6.042;2022-12-05T08:31:47;3.80;;;2.80;;
48403;SDS011;34202;52.536;6.042;2022-12-05T08:36:49;4.00;;;3.60;;
48403;SDS011;34202;52.536;6.042;2022-12-05T08:41:49;4.30;;;3.10;;
48403;SDS011;34202;52.536;6.042;2022-12-05T08:46:49;3.30;;;2.80;;
48403;SDS011;34202;52.536;6.042;2022-12-05T08:51:50;4.20;;;3.30;;
48403;SDS011;34202;52.536;6.042;2022-12-05T08:56:50;4.10;;;3.60;;
48403;SDS011;34202;52.536;6.042;2022-12-05T09:01:51;5.00;;;3.60;;
48403;SDS011;34202;52.536;6.042;2022-12-05T09:06:51;5.40;;;3.40;;
48403;SDS011;34202;52.536;6.042;2022-12-05T09:11:52;5.00;;;4.10;;
48403;SDS011;34202;52.536;6.042;2022-12-05T09:16:52;4.90;;;3.60;;
48403;SDS011;34202;52.536;6.042;2022-12-05T09:21:53;4.30;;;3.50;;
48403;SDS011;34202;52.536;6.042;2022-12-05T09:26:55;5.60;;;5.00;;
48403;SDS011;34202;52.536;6.042;2022-12-05T09:31:55;6.60;;;5.10;;
48403;SDS011;34202;52.536;6.042;2022-12-05T09:36:55;7.20;;;5.00;;
48403;SDS011;34202;52.536;6.042;2022-12-05T09:42:16;7.70;;;5.70;;
48403;SDS011;34202;52.536;6.042;2022-12-05T09:52:31;7.30;;;5.00;;
48403;SDS011;34202;52.536;6.042;2022-12-05T09:57:36;8.10;;;4.40;;
48403;SDS011;34202;52.536;6.042;2022-12-05T10:08:05;8.60;;;5.10;;
48403;SDS011;34202;52.536;6.042;2022-12-05T10:23:49;11.20;;;5.90;;
48403;SDS011;34202;52.536;6.042;2022-12-05T10:34:04;7.90;;;4.70;;
48403;SDS011;34202;52.536;6.042;2022-12-05T10:39:12;6.80;;;5.50;;
48403;SDS011;34202;52.536;6.042;2022-12-05T10:44:12;9.70;;;6.20;;
48403;SDS011;34202;52.536;6.042;2022-12-05T10:49:12;7.50;;;5.10;;
48403;SDS011;34202;52.536;6.042;2022-12-05T10:54:17;9.50;;;6.20;;
48403;SDS011;34202;52.536;6.042;2022-12-05T10:59:23;7.60;;;4.40;;
48403;SDS011;34202;52.536;6.042;2022-12-05T11:04:41;10.00;;;5.30;;
48403;SDS011;34202;52.536;6.042;2022-12-05T11:09:43;13.10;;;6.30;;
48403;SDS011;34202;52.536;6.042;2022-12-05T11:15:21;6.90;;;4.20;;
48403;SDS011;34202;52.536;6.042;2022-12-05T11:25:23;8.60;;;5.30;;
48403;SDS011;34202;52.536;6.042;2022-12-05T11:35:34;6.90;;;4.90;;
48403;SDS011;34202;52.536;6.042;2022-12-05T11:51:32;6.90;;;5.10;;
48403;SDS011;34202;52.536;6.042;2022-12-05T11:56:40;7.10;;;4.80;;
48403;SDS011;34202;52.536;6.042;2022-12-05T12:07:20;6.40;;;5.40;;
48403;SDS011;34202;52.536;6.042;2022-12-05T12:17:41;7.40;;;5.00;;
48403;SDS011;34202;52.536;6.042;2022-12-05T12:23:06;8.10;;;5.40;;
48403;SDS011;34202;52.536;6.042;2022-12-05T12:28:30;7.30;;;4.90;;
48403;SDS011;34202;52.536;6.042;2022-12-05T13:05:37;6.00;;;4.30;;
48403;SDS011;34202;52.536;6.042;2022-12-05T13:10:42;6.40;;;5.00;;
48403;SDS011;34202;52.536;6.042;2022-12-05T13:15:55;9.10;;;5.00;;
48403;SDS011;34202;52.536;6.042;2022-12-05T13:21:02;7.80;;;4.90;;
48403;SDS011;34202;52.536;6.042;2022-12-05T13:26:07;6.60;;;4.90;;
48403;SDS011;34202;52.536;6.042;2022-12-05T13:31:09;6.40;;;5.40;;
48403;SDS011;34202;52.536;6.042;2022-12-05T13:36:19;6.60;;;4.30;;
48403;SDS011;34202;52.536;6.042;2022-12-05T13:41:40;8.10;;;4.90;;
48403;SDS011;34202;52.536;6.042;2022-12-05T13:47:02;7.10;;;4.70;;
48403;SDS011;34202;52.536;6.042;2022-12-05T13:52:07;12.70;;;3.60;;
48403;SDS011;34202;52.536;6.042;2022-12-05T14:03:02;9.30;;;5.00;;
48403;SDS011;34202;52.536;6.042;2022-12-05T14:29:57;7.00;;;4.90;;
48403;SDS011;34202;52.536;6.042;2022-12-05T14:40:14;5.20;;;3.60;;
48403;SDS011;34202;52.536;6.042;2022-12-05T14:45:26;3.90;;;2.90;;
48403;SDS011;34202;52.536;6.042;2022-12-05T14:50:45;6.60;;;4.10;;
48403;SDS011;34202;52.536;6.042;2022-12-05T14:55:53;5.00;;;4.10;;
48403;SDS011;34202;52.536;6.042;2022-12-05T15:01:04;8.00;;;3.90;;
48403;SDS011;34202;52.536;6.042;2022-12-05T15:06:13;4.00;;;3.40;;
48403;SDS011;34202;52.536;6.042;2022-12-05T15:11:15;4.30;;;3.00;;
48403;SDS011;34202;52.536;6.042;2022-12-05T15:16:27;4.70;;;3.10;;
48403;SDS011;34202;52.536;6.042;2022-12-05T15:21:35;3.90;;;2.90;;
48403;SDS011;34202;52.536;6.042;2022-12-05T15:31:46;6.70;;;4.10;;
48403;SDS011;34202;52.536;6.042;2022-12-05T15:36:49;3.80;;;2.20;;
48403;SDS011;34202;52.536;6.042;2022-12-05T15:41:56;5.00;;;3.10;;
48403;SDS011;34202;52.536;6.042;2022-12-05T15:46:56;5.20;;;3.00;;
48403;SDS011;34202;52.536;6.042;2022-12-05T15:52:09;3.10;;;2.50;;
48403;SDS011;34202;52.536;6.042;2022-12-05T15:57:34;4.70;;;3.70;;
48403;SDS011;34202;52.536;6.042;2022-12-05T16:02:42;3.60;;;3.00;;
48403;SDS011;34202;52.536;6.042;2022-12-05T16:07:48;6.50;;;2.70;;
48403;SDS011;34202;52.536;6.042;2022-12-05T16:12:49;5.50;;;3.40;;
48403;SDS011;34202;52.536;6.042;2022-12-05T16:17:52;4.80;;;3.40;;
48403;SDS011;34202;52.536;6.042;2022-12-05T16:22:55;4.20;;;2.90;;
48403;SDS011;34202;52.536;6.042;2022-12-05T16:28:11;5.70;;;3.40;;
48403;SDS011;34202;52.536;6.042;2022-12-05T16:33:20;3.50;;;3.00;;
48403;SDS011;34202;52.536;6.042;2022-12-05T16:38:27;8.00;;;4.60;;
48403;SDS011;34202;52.536;6.042;2022-12-05T16:48:31;5.30;;;4.00;;
48403;SDS011;34202;52.536;6.042;2022-12-05T16:53:31;6.90;;;5.10;;
48403;SDS011;34202;52.536;6.042;2022-12-05T16:58:33;5.70;;;4.20;;
48403;SDS011;34202;52.536;6.042;2022-12-05T17:03:34;5.30;;;4.00;;
48403;SDS011;34202;52.536;6.042;2022-12-05T17:08:34;6.20;;;3.90;;
48403;SDS011;34202;52.536;6.042;2022-12-05T17:13:35;10.30;;;5.40;;
48403;SDS011;34202;52.536;6.042;2022-12-05T17:18:35;4.40;;;3.90;;
48403;SDS011;34202;52.536;6.042;2022-12-05T17:23:36;6.00;;;4.00;;
48403;SDS011;34202;52.536;6.042;2022-12-05T17:28:36;5.50;;;4.30;;
48403;SDS011;34202;52.536;6.042;2022-12-05T17:33:37;5.40;;;4.30;;
48403;SDS011;34202;52.536;6.042;2022-12-05T17:38:37;6.70;;;4.00;;
48403;SDS011;34202;52.536;6.042;2022-12-05T17:43:38;5.90;;;3.90;;
48403;SDS011;34202;52.536;6.042;2022-12-05T17:48:38;3.90;;;3.00;;
48403;SDS011;34202;52.536;6.042;2022-12-05T17:53:39;4.60;;;3.60;;
48403;SDS011;34202;52.536;6.042;2022-12-05T17:58:40;5.80;;;3.60;;
48403;SDS011;34202;52.536;6.042;2022-12-05T18:03:41;5.40;;;4.30;;
48403;SDS011;34202;52.536;6.042;2022-12-05T18:08:42;4.40;;;3.60;;
48403;SDS011;34202;52.536;6.042;2022-12-05T18:13:44;4.00;;;3.50;;
48403;SDS011;34202;52.536;6.042;2022-12-05T18:18:44;3.50;;;2.90;;
48403;SDS011;34202;52.536;6.042;2022-12-05T18:23:44;4.70;;;3.70;;
48403;SDS011;34202;52.536;6.042;2022-12-05T18:28:45;4.60;;;3.20;;
48403;SDS011;34202;52.536;6.042;2022-12-05T18:33:46;3.10;;;2.60;;
48403;SDS011;34202;52.536;6.042;2022-12-05T18:38:50;3.90;;;3.00;;
48403;SDS011;34202;52.536;6.042;2022-12-05T18:43:52;4.50;;;3.20;;
48403;SDS011;34202;52.536;6.042;2022-12-05T18:48:52;4.00;;;2.80;;
48403;SDS011;34202;52.536;6.042;2022-12-05T18:53:53;5.00;;;4.00;;
48403;SDS011;34202;52.536;6.042;2022-12-05T18:58:56;4.50;;;3.20;;
48403;SDS011;34202;52.536;6.042;2022-12-05T19:03:59;4.90;;;3.60;;
48403;SDS011;34202;52.536;6.042;2022-12-05T19:09:04;6.10;;;3.20;;
48403;SDS011;34202;52.536;6.042;2022-12-05T19:14:08;5.30;;;3.90;;
48403;SDS011;34202;52.536;6.042;2022-12-05T19:19:09;6.70;;;4.20;;
48403;SDS011;34202;52.536;6.042;2022-12-05T19:24:12;5.00;;;4.50;;
48403;SDS011;34202;52.536;6.042;2022-12-05T19:29:14;5.10;;;4.60;;
48403;SDS011;34202;52.536;6.042;2022-12-05T19:34:15;4.90;;;4.30;;
48403;SDS011;34202;52.536;6.042;2022-12-05T19:39:16;8.50;;;7.50;;
48403;SDS011;34202;52.536;6.042;2022-12-05T19:44:19;7.10;;;6.40;;
48403;SDS011;34202;52.536;6.042;2022-12-05T19:49:19;5.30;;;4.00;;
48403;SDS011;34202;52.536;6.042;2022-12-05T19:54:22;7.50;;;5.60;;
48403;SDS011;34202;52.536;6.042;2022-12-05T19:59:23;13.70;;;6.60;;
48403;SDS011;34202;52.536;6.042;2022-12-05T20:04:23;12.10;;;6.60;;
48403;SDS011;34202;52.536;6.042;2022-12-05T20:09:23;6.20;;;5.60;;
48403;SDS011;34202;52.536;6.042;2022-12-05T20:14:24;7.60;;;5.40;;
48403;SDS011;34202;52.536;6.042;2022-12-05T20:19:25;5.50;;;4.70;;
48403;SDS011;34202;52.536;6.042;2022-12-05T20:24:25;5.40;;;4.90;;
48403;SDS011;34202;52.536;6.042;2022-12-05T20:29:25;6.20;;;4.90;;
48403;SDS011;34202;52.536;6.042;2022-12-05T20:34:26;6.30;;;4.80;;
48403;SDS011;34202;52.536;6.042;2022-12-05T20:39:26;8.50;;;6.00;;
48403;SDS011;34202;52.536;6.042;2022-12-05T20:44:28;8.50;;;5.50;;
48403;SDS011;34202;52.536;6.042;2022-12-05T20:49:28;7.00;;;5.90;;
48403;SDS011;34202;52.536;6.042;2022-12-05T20:54:29;6.70;;;6.00;;
48403;SDS011;34202;52.536;6.042;2022-12-05T20:59:29;6.70;;;5.70;;
48403;SDS011;34202;52.536;6.042;2022-12-05T21:04:29;6.10;;;5.20;;
48403;SDS011;34202;52.536;6.042;2022-12-05T21:09:30;8.10;;;5.80;;
48403;SDS011;34202;52.536;6.042;2022-12-05T21:14:30;8.00;;;5.40;;
48403;SDS011;34202;52.536;6.042;2022-12-05T21:19:33;5.50;;;4.80;;
48403;SDS011;34202;52.536;6.042;2022-12-05T21:24:33;8.80;;;4.90;;
48403;SDS011;34202;52.536;6.042;2022-12-05T21:29:33;5.90;;;5.00;;
48403;SDS011;34202;52.536;6.042;2022-12-05T21:34:34;7.20;;;4.50;;
48403;SDS011;34202;52.536;6.042;2022-12-05T21:39:34;4.00;;;3.30;;
48403;SDS011;34202;52.536;6.042;2022-12-05T21:44:35;4.90;;;3.70;;
48403;SDS011;34202;52.536;6.042;2022-12-05T21:49:35;4.00;;;3.30;;
48403;SDS011;34202;52.536;6.042;2022-12-05T21:54:35;4.80;;;3.70;;
48403;SDS011;34202;52.536;6.042;2022-12-05T21:59:36;4.50;;;4.00;;
48403;SDS011;34202;52.536;6.042;2022-12-05T22:04:36;3.70;;;2.50;;
48403;SDS011;34202;52.536;6.042;2022-12-05T22:09:36;5.30;;;3.60;;
48403;SDS011;34202;52.536;6.042;2022-12-05T22:14:37;5.90;;;3.40;;
48403;SDS011;34202;52.536;6.042;2022-12-05T22:19:37;5.60;;;3.80;;
48403;SDS011;34202;52.536;6.042;2022-12-05T22:24:37;5.10;;;2.40;;
48403;SDS011;34202;52.536;6.042;2022-12-05T22:29:38;5.00;;;3.30;;
48403;SDS011;34202;52.536;6.042;2022-12-05T22:34:38;4.70;;;2.90;;
48403;SDS011;34202;52.536;6.042;2022-12-05T22:39:38;5.90;;;3.30;;
48403;SDS011;34202;52.536;6.042;2022-12-05T22:44:39;5.50;;;3.50;;
48403;SDS011;34202;52.536;6.042;2022-12-05T22:49:39;6.90;;;3.50;;
48403;SDS011;34202;52.536;6.042;2022-12-05T22:54:39;5.80;;;3.30;;
48403;SDS011;34202;52.536;6.042;2022-12-05T22:59:40;8.40;;;3.20;;
48403;SDS011;34202;52.536;6.042;2022-12-05T23:04:40;3.20;;;2.90;;
48403;SDS011;34202;52.536;6.042;2022-12-05T23:09:40;8.30;;;3.30;;
48403;SDS011;34202;52.536;6.042;2022-12-05T23:14:41;9.30;;;5.20;;
48403;SDS011;34202;52.536;6.042;2022-12-05T23:19:41;6.40;;;3.20;;
48403;SDS011;34202;52.536;6.042;2022-12-05T23:24:42;9.00;;;3.50;;
48403;SDS011;34202;52.536;6.042;2022-12-05T23:29:42;10.30;;;4.10;;
48403;SDS011;34202;52.536;6.042;2022-12-05T23:34:42;7.60;;;4.80;;
48403;SDS011;34202;52.536;6.042;2022-12-05T23:39:43;14.70;;;6.00;;
48403;SDS011;34202;52.536;6.042;2022-12-05T23:44:43;9.70;;;4.60;;
48403;SDS011;34202;52.536;6.042;2022-12-05T23:49:44;10.60;;;4.80;;
48403;SDS011;34202;52.536;6.042;2022-12-05T23:54:44;13.10;;;6.10;;
48403;SDS011;34202;52.536;6.042;2022-12-05T23:59:45;4.60;;;3.10;;
